createdAt,value
2023-03-06T00:00:17.615Z,2.70
2023-03-06T00:02:45.707Z,2.72
2023-03-06T00:05:14.205Z,2.72
2023-03-06T00:07:42.049Z,2.71
2023-03-06T00:10:14.220Z,2.73
2023-03-06T00:12:43.685Z,2.69
2023-03-06T00:15:12.519Z,2.61
2023-03-06T00:17:40.954Z,2.66
2023-03-06T00:20:10.924Z,2.57
2023-03-06T00:22:38.823Z,2.57
2023-03-06T00:25:08.115Z,2.58
2023-03-06T00:27:35.919Z,2.53
2023-03-06T00:30:06.169Z,2.49
2023-03-06T00:32:35.297Z,2.39
2023-03-06T00:35:03.668Z,2.17
2023-03-06T00:37:31.439Z,2.01
2023-03-06T00:39:59.268Z,1.86
2023-03-06T00:42:27.028Z,1.81
2023-03-06T00:44:54.992Z,1.68
2023-03-06T00:47:24.864Z,1.54
2023-03-06T00:49:53.057Z,1.42
2023-03-06T00:52:20.983Z,1.39
2023-03-06T00:54:48.749Z,1.28
2023-03-06T00:57:16.586Z,1.29
2023-03-06T00:59:44.342Z,1.33
2023-03-06T01:02:12.153Z,1.35
2023-03-06T01:04:41.351Z,1.43
2023-03-06T01:07:09.175Z,1.49
2023-03-06T01:09:36.946Z,1.52
2023-03-06T01:12:05.076Z,1.52
2023-03-06T01:14:32.838Z,1.54
2023-03-06T01:17:00.614Z,1.49
2023-03-06T01:19:28.461Z,1.48
2023-03-06T01:21:57.615Z,1.53
2023-03-06T01:24:26.016Z,1.57
2023-03-06T01:26:57.536Z,1.59
2023-03-06T01:29:26.358Z,1.58
2023-03-06T01:31:54.244Z,1.53
2023-03-06T01:34:22.089Z,1.54
2023-03-06T01:36:49.971Z,1.50
2023-03-06T01:39:19.119Z,1.50
2023-03-06T01:41:47.467Z,1.48
2023-03-06T01:44:15.275Z,1.44
2023-03-06T01:46:44.041Z,1.42
2023-03-06T01:49:19.681Z,1.38
2023-03-06T01:51:53.489Z,1.32
2023-03-06T01:54:26.432Z,1.25
2023-03-06T01:56:57.647Z,1.23
2023-03-06T01:59:26.915Z,1.24
2023-03-06T02:01:55.876Z,1.22
2023-03-06T02:04:24.791Z,1.18
2023-03-06T02:06:53.005Z,1.19
2023-03-06T02:09:20.923Z,1.17
2023-03-06T02:11:50.077Z,1.14
2023-03-06T02:14:19.021Z,1.10
2023-03-06T02:16:46.973Z,1.10
2023-03-06T02:19:29.947Z,1.09
2023-03-06T02:21:57.908Z,1.03
2023-03-06T02:24:36.508Z,1.02
2023-03-06T02:27:08.058Z,0.99
2023-03-06T02:29:36.405Z,0.96
2023-03-06T02:32:05.212Z,0.92
2023-03-06T02:34:56.942Z,0.86
2023-03-06T02:37:26.427Z,0.87
2023-03-06T02:40:03.487Z,0.89
2023-03-06T02:42:32.788Z,0.89
2023-03-06T02:45:03.305Z,0.87
2023-03-06T02:47:31.748Z,0.86
2023-03-06T02:50:00.130Z,0.84
2023-03-06T02:52:27.953Z,0.83
2023-03-06T02:54:56.783Z,0.86
2023-03-06T02:57:24.985Z,0.86
2023-03-06T02:59:54.979Z,0.88
2023-03-06T03:02:22.798Z,0.88
2023-03-06T03:04:50.683Z,0.89
2023-03-06T03:07:18.949Z,0.91
2023-03-06T03:09:46.917Z,0.94
2023-03-06T03:12:14.849Z,0.94
2023-03-06T03:14:42.644Z,0.98
2023-03-06T03:17:11.855Z,1.01
2023-03-06T03:19:39.690Z,1.03
2023-03-06T03:22:07.937Z,1.04
2023-03-06T03:24:35.796Z,1.05
2023-03-06T03:27:04.012Z,1.03
2023-03-06T03:29:32.621Z,1.05
2023-03-06T03:32:00.643Z,1.06
2023-03-06T03:34:29.974Z,1.10
2023-03-06T03:36:58.470Z,1.11
2023-03-06T03:39:26.532Z,1.11
2023-03-06T03:41:54.322Z,1.12
2023-03-06T03:44:22.417Z,1.11
2023-03-06T03:46:50.241Z,1.12
2023-03-06T03:49:21.976Z,1.13
2023-03-06T03:51:52.672Z,1.15
2023-03-06T03:54:21.918Z,1.16
2023-03-06T03:56:51.324Z,1.17
2023-03-06T03:59:24.950Z,1.19
2023-03-06T04:02:04.707Z,1.21
2023-03-06T04:04:36.763Z,1.24
2023-03-06T04:07:06.270Z,1.27
2023-03-06T04:09:34.178Z,1.30
2023-03-06T04:12:02.329Z,1.32
2023-03-06T04:14:31.213Z,1.32
2023-03-06T04:16:59.143Z,1.33
2023-03-06T04:19:27.207Z,1.34
2023-03-06T04:21:55.044Z,1.37
2023-03-06T04:24:24.383Z,1.36
2023-03-06T04:26:53.004Z,1.38
2023-03-06T04:29:20.832Z,1.38
2023-03-06T04:31:48.708Z,1.40
2023-03-06T04:34:16.602Z,1.39
2023-03-06T04:36:46.083Z,1.40
2023-03-06T04:39:16.622Z,1.41
2023-03-06T04:41:45.930Z,1.42
2023-03-06T04:44:13.861Z,1.44
2023-03-06T04:46:41.629Z,1.43
2023-03-06T04:49:09.500Z,1.44
2023-03-06T04:51:37.738Z,1.46
2023-03-06T04:54:05.900Z,1.47
2023-03-06T04:56:34.547Z,1.47
2023-03-06T04:59:05.027Z,1.48
2023-03-06T05:01:32.850Z,1.50
2023-03-06T05:04:00.667Z,1.50
2023-03-06T05:06:28.480Z,1.52
2023-03-06T05:08:56.367Z,1.54
2023-03-06T05:11:24.140Z,1.54
2023-03-06T05:13:52.294Z,1.57
2023-03-06T05:16:21.509Z,1.59
2023-03-06T05:18:50.743Z,1.62
2023-03-06T05:21:18.589Z,1.66
2023-03-06T05:23:47.579Z,1.69
2023-03-06T05:26:16.214Z,1.71
2023-03-06T05:28:44.011Z,1.74
2023-03-06T05:31:11.921Z,1.77
2023-03-06T05:33:41.095Z,1.77
2023-03-06T05:36:10.319Z,1.77
2023-03-06T05:38:38.110Z,1.78
2023-03-06T05:41:06.208Z,1.78
2023-03-06T05:43:34.027Z,1.80
2023-03-06T05:46:03.467Z,1.79
2023-03-06T05:48:31.636Z,1.79
2023-03-06T05:51:02.661Z,1.80
2023-03-06T05:53:31.334Z,1.79
2023-03-06T05:56:00.200Z,1.78
2023-03-06T05:58:28.929Z,1.79
2023-03-06T06:00:56.892Z,1.78
2023-03-06T06:03:25.053Z,1.77
2023-03-06T06:05:53.512Z,1.76
2023-03-06T06:08:22.864Z,1.74
2023-03-06T06:10:53.322Z,1.73
2023-03-06T06:13:21.330Z,1.71
2023-03-06T06:15:49.136Z,1.69
2023-03-06T06:18:16.985Z,1.71
2023-03-06T06:20:44.780Z,1.71
2023-03-06T06:23:12.816Z,1.73
2023-03-06T06:25:42.242Z,1.72
2023-03-06T06:28:10.066Z,1.74
2023-03-06T06:30:38.343Z,1.76
2023-03-06T06:33:06.181Z,1.78
2023-03-06T06:35:37.228Z,1.82
2023-03-06T06:38:05.174Z,1.82
2023-03-06T06:40:32.982Z,1.87
2023-03-06T06:43:02.139Z,1.89
2023-03-06T06:45:29.964Z,1.92
2023-03-06T06:47:58.039Z,1.94
2023-03-06T06:50:25.981Z,1.96
2023-03-06T06:52:53.715Z,2.01
2023-03-06T06:55:21.552Z,2.04
2023-03-06T06:57:49.315Z,2.08
2023-03-06T07:00:20.315Z,2.11
2023-03-06T07:02:49.194Z,2.17
2023-03-06T07:05:17.216Z,2.19
2023-03-06T07:07:45.058Z,2.22
2023-03-06T07:10:15.708Z,2.25
2023-03-06T07:12:43.790Z,2.29
2023-03-06T07:15:13.666Z,2.33
2023-03-06T07:17:42.793Z,2.39
2023-03-06T07:20:12.647Z,2.42
2023-03-06T07:22:50.409Z,2.45
2023-03-06T07:25:19.732Z,2.51
2023-03-06T07:27:53.299Z,2.62
2023-03-06T07:30:22.370Z,2.69
2023-03-06T07:32:53.931Z,2.75
2023-03-06T07:35:22.044Z,2.85
2023-03-06T07:37:49.953Z,2.98
2023-03-06T07:40:19.584Z,3.13
2023-03-06T07:42:47.794Z,3.29
2023-03-06T07:45:19.582Z,3.47
2023-03-06T07:47:55.336Z,3.63
2023-03-06T07:50:23.237Z,3.74
2023-03-06T07:52:51.603Z,3.93
2023-03-06T07:55:19.787Z,4.13
2023-03-06T07:57:47.623Z,4.32
2023-03-06T08:00:16.901Z,4.55
2023-03-06T08:02:44.882Z,4.88
2023-03-06T08:05:16.520Z,5.14
2023-03-06T08:07:45.041Z,5.45
2023-03-06T08:10:15.350Z,5.69
2023-03-06T08:12:43.278Z,5.58
2023-03-06T08:15:12.498Z,5.44
2023-03-06T08:17:40.653Z,5.40
2023-03-06T08:20:11.443Z,5.41
2023-03-06T08:22:40.773Z,5.42
2023-03-06T08:25:09.411Z,5.38
2023-03-06T08:27:37.332Z,5.43
2023-03-06T08:30:05.668Z,5.63
2023-03-06T08:32:36.198Z,5.71
2023-03-06T08:35:04.400Z,5.77
2023-03-06T08:37:32.257Z,5.91
2023-03-06T08:40:02.633Z,6.05
2023-03-06T08:42:30.466Z,6.16
2023-03-06T08:44:58.263Z,6.19
2023-03-06T08:47:26.129Z,6.27
2023-03-06T08:49:53.922Z,6.40
2023-03-06T08:52:21.697Z,6.52
2023-03-06T08:54:49.462Z,6.58
2023-03-06T08:57:18.709Z,6.76
2023-03-06T08:59:46.535Z,7.14
2023-03-06T09:02:15.265Z,7.12
2023-03-06T09:04:43.156Z,7.36
2023-03-06T09:07:10.903Z,7.52
2023-03-06T09:09:38.669Z,7.78
2023-03-06T09:12:06.751Z,7.95
2023-03-06T09:14:35.897Z,7.82
2023-03-06T09:17:03.703Z,7.75
2023-03-06T09:19:31.482Z,7.81
2023-03-06T09:22:00.976Z,7.93
2023-03-06T09:24:29.031Z,7.88
2023-03-06T09:26:56.888Z,7.89
2023-03-06T09:29:24.667Z,7.92
2023-03-06T09:31:53.768Z,8.11
2023-03-06T09:34:21.699Z,8.44
2023-03-06T09:36:56.401Z,8.77
2023-03-06T09:39:25.820Z,8.90
2023-03-06T09:41:54.926Z,8.90
2023-03-06T09:44:25.987Z,8.95
2023-03-06T09:47:11.629Z,9.16
2023-03-06T09:49:50.947Z,9.49
2023-03-06T09:52:32.412Z,9.55
2023-03-06T09:55:03.391Z,9.68
2023-03-06T09:57:32.823Z,9.81
2023-03-06T10:00:04.657Z,9.71
2023-03-06T10:02:38.321Z,9.68
2023-03-06T10:05:13.391Z,9.73
2023-03-06T10:07:47.964Z,9.64
2023-03-06T10:10:21.776Z,9.18
2023-03-06T10:12:58.614Z,9.04
2023-03-06T10:15:30.836Z,9.04
2023-03-06T10:17:58.722Z,9.13
2023-03-06T10:20:29.673Z,9.22
2023-03-06T10:23:13.246Z,9.14
2023-03-06T10:25:50.820Z,9.17
2023-03-06T10:28:22.181Z,9.03
2023-03-06T10:30:55.247Z,9.14
2023-03-06T10:33:29.101Z,9.23
2023-03-06T10:35:58.532Z,9.44
2023-03-06T10:38:28.429Z,9.83
2023-03-06T10:41:08.828Z,10.11
2023-03-06T10:43:37.709Z,10.21
2023-03-06T10:46:06.918Z,10.02
2023-03-06T10:48:37.051Z,10.20
2023-03-06T10:51:19.079Z,10.00
2023-03-06T10:53:52.921Z,9.96
2023-03-06T10:56:32.405Z,9.78
2023-03-06T10:59:07.721Z,9.79
2023-03-06T11:01:36.870Z,10.12
2023-03-06T11:04:17.973Z,10.44
2023-03-06T11:06:47.170Z,10.22
2023-03-06T11:09:17.586Z,10.21
2023-03-06T11:11:45.439Z,10.46
2023-03-06T11:14:16.418Z,10.47
2023-03-06T11:16:52.717Z,10.36
2023-03-06T11:19:24.552Z,10.45
2023-03-06T11:22:05.031Z,10.31
2023-03-06T11:24:39.020Z,9.96
2023-03-06T11:27:23.633Z,9.68
2023-03-06T11:29:55.279Z,9.52
2023-03-06T11:32:28.806Z,9.61
2023-03-06T11:35:02.285Z,9.82
2023-03-06T11:37:43.631Z,9.82
2023-03-06T11:40:18.576Z,9.80
2023-03-06T11:42:52.636Z,9.73
2023-03-06T11:45:26.260Z,9.56
2023-03-06T11:48:02.806Z,9.54
2023-03-06T11:50:35.671Z,9.48
2023-03-06T11:53:07.354Z,9.72
2023-03-06T11:55:45.653Z,10.04
2023-03-06T11:58:33.683Z,10.18
2023-03-06T12:01:07.291Z,10.13
2023-03-06T12:03:57.611Z,10.17
2023-03-06T12:06:36.312Z,10.05
2023-03-06T12:09:24.223Z,9.78
2023-03-06T12:12:08.070Z,9.71
2023-03-06T12:14:51.862Z,9.57
2023-03-06T12:17:27.526Z,9.45
2023-03-06T12:20:23.150Z,9.38
2023-03-06T12:22:58.251Z,9.13
2023-03-06T12:25:44.992Z,9.19
2023-03-06T12:28:29.061Z,8.94
2023-03-06T12:31:16.019Z,8.85
2023-03-06T12:33:53.415Z,9.07
2023-03-06T12:36:39.808Z,9.24
2023-03-06T12:39:15.808Z,9.26
2023-03-06T12:42:17.869Z,8.87
2023-03-06T12:45:05.889Z,9.16
2023-03-06T12:47:40.555Z,9.28
2023-03-06T12:50:19.111Z,9.13
2023-03-06T12:52:49.183Z,8.99
2023-03-06T12:55:22.767Z,8.87
2023-03-06T12:57:54.088Z,8.71
2023-03-06T13:01:04.888Z,8.35
2023-03-06T13:03:49.290Z,8.02
2023-03-06T13:06:39.056Z,8.04
2023-03-06T13:09:19.971Z,8.27
2023-03-06T13:12:24.687Z,8.00
2023-03-06T13:15:01.910Z,7.97
2023-03-06T13:17:38.476Z,7.99
2023-03-06T13:20:30.413Z,7.88
2023-03-06T13:22:58.739Z,7.89
2023-03-06T13:25:47.849Z,7.83
2023-03-06T13:28:27.829Z,7.69
2023-03-06T13:30:57.108Z,7.68
2023-03-06T13:33:54.509Z,7.64
2023-03-06T13:36:30.803Z,7.95
2023-03-06T13:39:03.414Z,7.99
2023-03-06T13:41:43.692Z,7.75
2023-03-06T13:44:48.744Z,7.51
2023-03-06T13:47:32.178Z,7.56
2023-03-06T13:50:01.215Z,7.49
2023-03-06T13:52:40.850Z,7.37
2023-03-06T13:55:23.930Z,7.32
2023-03-06T13:57:57.898Z,7.26
2023-03-06T14:00:58.715Z,7.08
2023-03-06T14:03:54.301Z,7.03
2023-03-06T14:07:01.278Z,7.00
2023-03-06T14:09:30.871Z,7.03
2023-03-06T14:12:03.486Z,6.93
2023-03-06T14:14:40.259Z,6.88
2023-03-06T14:17:16.084Z,6.95
2023-03-06T14:19:45.256Z,6.97
2023-03-06T14:22:19.112Z,6.94
2023-03-06T14:24:56.500Z,6.78
2023-03-06T14:27:39.424Z,6.73
2023-03-06T14:30:09.802Z,6.73
2023-03-06T14:32:39.711Z,6.48
2023-03-06T14:35:24.690Z,6.33
2023-03-06T14:37:54.635Z,6.20
2023-03-06T14:40:28.480Z,5.97
2023-03-06T14:43:20.127Z,5.99
2023-03-06T14:45:58.604Z,6.02
2023-03-06T14:48:38.412Z,6.10
2023-03-06T14:51:12.808Z,6.12
2023-03-06T14:53:40.747Z,5.98
2023-03-06T14:56:08.856Z,5.63
2023-03-06T14:58:41.980Z,5.32
2023-03-06T15:01:13.099Z,5.28
2023-03-06T15:03:45.199Z,5.32
2023-03-06T15:06:18.886Z,5.26
2023-03-06T15:08:49.372Z,5.16
2023-03-06T15:11:17.159Z,5.22
2023-03-06T15:14:01.610Z,5.32
2023-03-06T15:16:30.666Z,5.36
2023-03-06T15:19:00.507Z,5.43
2023-03-06T15:21:35.020Z,5.55
2023-03-06T15:24:03.078Z,5.60
2023-03-06T15:26:33.310Z,5.54
2023-03-06T15:29:18.942Z,5.52
2023-03-06T15:31:47.325Z,5.55
2023-03-06T15:34:18.623Z,5.59
2023-03-06T15:36:48.481Z,5.55
2023-03-06T15:39:38.931Z,5.54
2023-03-06T15:42:19.105Z,5.50
2023-03-06T15:44:51.528Z,5.55
2023-03-06T15:47:19.854Z,5.53
2023-03-06T15:49:51.773Z,5.43
2023-03-06T15:52:21.764Z,5.42
2023-03-06T15:54:49.885Z,5.34
2023-03-06T15:57:22.731Z,5.31
2023-03-06T15:59:51.405Z,5.28
2023-03-06T16:02:20.654Z,5.22
2023-03-06T16:04:49.358Z,5.16
2023-03-06T16:07:17.527Z,5.13
2023-03-06T16:09:47.419Z,5.13
2023-03-06T16:12:17.670Z,5.07
2023-03-06T16:14:45.732Z,4.96
2023-03-06T16:17:13.814Z,4.80
2023-03-06T16:19:42.052Z,4.56
2023-03-06T16:22:09.856Z,4.38
2023-03-06T16:24:37.723Z,4.22
2023-03-06T16:27:07.245Z,4.12
2023-03-06T16:29:35.185Z,4.02
2023-03-06T16:32:04.507Z,3.97
2023-03-06T16:34:32.305Z,3.89
2023-03-06T16:37:00.109Z,3.80
2023-03-06T16:39:27.880Z,3.73
2023-03-06T16:41:56.352Z,3.61
2023-03-06T16:44:25.536Z,3.57
2023-03-06T16:46:53.339Z,3.56
2023-03-06T16:49:23.869Z,3.53
2023-03-06T16:51:52.691Z,3.49
2023-03-06T16:54:21.808Z,3.42
2023-03-06T16:56:49.828Z,3.42
2023-03-06T16:59:17.630Z,3.34
2023-03-06T17:01:46.858Z,3.33
2023-03-06T17:04:14.714Z,3.34
2023-03-06T17:06:43.161Z,3.34
2023-03-06T17:09:11.404Z,3.34
2023-03-06T17:11:39.513Z,3.33
2023-03-06T17:14:07.710Z,3.32
2023-03-06T17:16:37.058Z,3.29
2023-03-06T17:19:06.242Z,3.28
2023-03-06T17:21:35.372Z,3.23
2023-03-06T17:24:03.851Z,3.22
2023-03-06T17:26:31.906Z,3.20
2023-03-06T17:28:59.876Z,3.20
2023-03-06T17:31:29.307Z,3.22
2023-03-06T17:34:00.444Z,3.22
2023-03-06T17:36:30.659Z,3.22
2023-03-06T17:38:59.999Z,3.21
2023-03-06T17:41:28.405Z,3.20
2023-03-06T17:43:58.146Z,3.19
2023-03-06T17:46:26.234Z,3.20
2023-03-06T17:48:54.393Z,3.22
2023-03-06T17:51:22.200Z,3.25
2023-03-06T17:53:52.218Z,3.29
2023-03-06T17:56:20.368Z,3.30
2023-03-06T17:58:48.293Z,3.32
2023-03-06T18:01:18.646Z,3.33
2023-03-06T18:03:48.190Z,3.32
2023-03-06T18:06:17.075Z,3.31
2023-03-06T18:08:45.800Z,3.30
2023-03-06T18:11:15.279Z,3.28
2023-03-06T18:13:44.591Z,3.25
2023-03-06T18:16:14.212Z,3.21
2023-03-06T18:18:42.340Z,3.22
2023-03-06T18:21:12.075Z,3.20
2023-03-06T18:23:41.533Z,3.19
2023-03-06T18:26:12.442Z,3.14
2023-03-06T18:28:44.429Z,3.09
2023-03-06T18:31:16.977Z,3.00
2023-03-06T18:33:45.088Z,2.92
2023-03-06T18:36:12.901Z,2.84
2023-03-06T18:38:43.954Z,2.79
2023-03-06T18:41:12.136Z,2.74
2023-03-06T18:43:41.309Z,2.67
2023-03-06T18:46:09.513Z,2.63
2023-03-06T18:48:37.547Z,2.62
2023-03-06T18:51:06.342Z,2.59
2023-03-06T18:53:34.246Z,2.58
2023-03-06T18:56:02.087Z,2.54
2023-03-06T18:58:30.648Z,2.53
2023-03-06T19:01:02.140Z,2.50
2023-03-06T19:03:30.050Z,2.50
2023-03-06T19:05:59.120Z,2.47
2023-03-06T19:08:26.934Z,2.46
2023-03-06T19:10:54.733Z,2.44
2023-03-06T19:13:22.464Z,2.42
2023-03-06T19:15:50.354Z,2.41
2023-03-06T19:18:19.534Z,2.40
2023-03-06T19:20:47.349Z,2.38
2023-03-06T19:23:15.135Z,2.39
2023-03-06T19:25:43.054Z,2.38
2023-03-06T19:28:10.863Z,2.35
2023-03-06T19:30:41.143Z,2.33
2023-03-06T19:33:08.942Z,2.29
2023-03-06T19:35:38.165Z,2.27
2023-03-06T19:38:06.172Z,2.23
2023-03-06T19:40:34.355Z,2.22
2023-03-06T19:43:02.358Z,2.19
2023-03-06T19:45:30.256Z,2.16
2023-03-06T19:48:00.840Z,2.13
2023-03-06T19:50:29.729Z,2.13
2023-03-06T19:52:59.096Z,2.10
2023-03-06T19:55:28.615Z,2.11
2023-03-06T19:57:56.452Z,2.09
2023-03-06T20:00:24.708Z,2.10
2023-03-06T20:02:52.566Z,2.10
2023-03-06T20:05:20.487Z,2.14
2023-03-06T20:07:48.308Z,2.15
2023-03-06T20:10:18.320Z,2.19
2023-03-06T20:12:46.523Z,2.21
2023-03-06T20:15:14.344Z,2.22
2023-03-06T20:17:42.137Z,2.25
2023-03-06T20:20:12.016Z,2.28
2023-03-06T20:22:39.897Z,2.32
2023-03-06T20:25:08.131Z,2.35
2023-03-06T20:27:37.527Z,2.38
2023-03-06T20:30:08.003Z,2.42
2023-03-06T20:32:38.430Z,2.48
2023-03-06T20:35:08.380Z,2.56
2023-03-06T20:37:36.174Z,2.58
2023-03-06T20:40:04.494Z,2.58
2023-03-06T20:42:32.297Z,2.66
2023-03-06T20:45:01.468Z,2.73
2023-03-06T20:47:29.254Z,2.74
2023-03-06T20:49:57.217Z,2.74
2023-03-06T20:52:27.542Z,2.77
2023-03-06T20:54:55.316Z,2.81
2023-03-06T20:57:23.099Z,2.87
2023-03-06T20:59:50.875Z,2.91
2023-03-06T21:02:20.034Z,2.91
2023-03-06T21:04:47.848Z,2.94
2023-03-06T21:07:16.912Z,2.96
2023-03-06T21:09:44.696Z,3.00
2023-03-06T21:12:12.473Z,3.03
2023-03-06T21:14:40.231Z,3.07
2023-03-06T21:17:07.989Z,3.10
2023-03-06T21:19:37.199Z,3.13
2023-03-06T21:22:05.027Z,3.16
2023-03-06T21:24:32.853Z,3.15
2023-03-06T21:27:00.631Z,3.18
2023-03-06T21:29:28.426Z,3.22
2023-03-06T21:31:56.179Z,3.24
2023-03-06T21:34:24.004Z,3.26
2023-03-06T21:36:53.167Z,3.30
2023-03-06T21:39:21.016Z,3.32
2023-03-06T21:41:48.831Z,3.34
2023-03-06T21:44:16.623Z,3.36
2023-03-06T21:46:44.374Z,3.42
2023-03-06T21:49:12.161Z,3.46
2023-03-06T21:51:39.998Z,3.53
2023-03-06T21:54:09.721Z,3.55
2023-03-06T21:56:37.569Z,3.56
2023-03-06T21:59:05.434Z,3.62
2023-03-06T22:01:33.840Z,3.64
2023-03-06T22:04:01.729Z,3.65
2023-03-06T22:06:31.233Z,3.67
2023-03-06T22:09:01.325Z,3.71
2023-03-06T22:11:34.197Z,3.75
2023-03-06T22:14:02.153Z,3.77
2023-03-06T22:16:30.111Z,3.79
2023-03-06T22:18:57.920Z,3.80
2023-03-06T22:21:26.013Z,3.83
2023-03-06T22:23:57.219Z,3.82
2023-03-06T22:26:25.184Z,3.82
2023-03-06T22:28:54.343Z,3.81
2023-03-06T22:31:24.785Z,3.81
2023-03-06T22:33:53.117Z,3.80
2023-03-06T22:36:21.740Z,3.78
2023-03-06T22:38:50.663Z,3.78
2023-03-06T22:41:20.090Z,3.77
2023-03-06T22:43:48.383Z,3.77
2023-03-06T22:46:18.868Z,3.78
2023-03-06T22:48:46.723Z,3.76
2023-03-06T22:51:16.380Z,3.75
2023-03-06T22:53:44.881Z,3.75
2023-03-06T22:56:14.635Z,3.75
2023-03-06T22:58:44.754Z,3.74
2023-03-06T23:01:15.238Z,3.72
2023-03-06T23:03:46.049Z,3.72
2023-03-06T23:06:16.451Z,3.70
2023-03-06T23:08:49.097Z,3.72
2023-03-06T23:11:19.474Z,3.72
2023-03-06T23:14:06.090Z,3.72
2023-03-06T23:16:52.843Z,3.70
2023-03-06T23:19:40.442Z,3.69
2023-03-06T23:22:26.750Z,3.67
2023-03-06T23:25:13.132Z,3.68
2023-03-06T23:27:41.079Z,3.67
2023-03-06T23:30:10.405Z,3.67
2023-03-06T23:32:38.223Z,3.68
2023-03-06T23:35:08.567Z,3.69
2023-03-06T23:37:36.339Z,3.69
2023-03-06T23:40:07.759Z,3.69
2023-03-06T23:42:35.371Z,3.70
2023-03-06T23:45:03.191Z,3.74
2023-03-06T23:47:32.923Z,3.75
2023-03-06T23:50:00.723Z,3.82
2023-03-06T23:52:29.875Z,3.87
2023-03-06T23:54:57.674Z,3.91
2023-03-06T23:57:25.472Z,3.97
2023-03-06T23:59:53.357Z,4.00
